createdAt,value
2017-07-01T15:34:39.866Z,1001.9
2017-07-01T15:35:41.238Z,1001.9
2017-07-01T15:37:02.693Z,1001.9
2017-07-01T15:38:04.065Z,1001.9
2017-07-01T15:39:25.517Z,1001.9
2017-07-01T15:40:26.910Z,1002.0
2017-07-01T15:41:48.353Z,1001.9
2017-07-01T15:42:49.726Z,1001.9
2017-07-01T15:44:13.154Z,1002.0
2017-07-01T15:49:12.622Z,1002.0
2017-07-01T15:50:14.225Z,1002.0
2017-07-01T15:51:35.693Z,1002.0
2017-07-01T15:52:37.061Z,1002.1
2017-07-01T15:53:59.011Z,1002.1
2017-07-01T15:55:00.392Z,1002.2
2017-07-01T15:56:21.855Z,1002.1
2017-07-01T15:57:23.242Z,1002.1
2017-07-01T15:58:45.224Z,1002.2
2017-07-01T15:59:46.606Z,1002.1
2017-07-01T16:08:10.343Z,1001.9
2017-07-01T16:09:11.718Z,1001.9
2017-07-01T16:10:33.292Z,1001.9
2017-07-01T16:11:34.676Z,1001.9
2017-07-01T16:12:56.262Z,1001.9
2017-07-01T16:13:57.638Z,1001.9
2017-07-01T16:15:19.120Z,1002.0
2017-07-01T16:16:20.501Z,1002.0
2017-07-01T16:17:41.975Z,1002.0
2017-07-01T16:18:43.350Z,1002.0
2017-07-01T16:20:04.827Z,1002.0
2017-07-01T16:21:06.211Z,1002.0
2017-07-01T16:22:27.701Z,1002.1
2017-07-01T16:23:29.085Z,1002.1
2017-07-01T16:24:50.555Z,1002.1
2017-07-01T16:25:51.933Z,1002.1
2017-07-01T16:27:13.456Z,1002.1
2017-07-01T16:28:14.834Z,1002.1
2017-07-01T16:29:36.439Z,1002.1
2017-07-01T16:30:37.816Z,1002.2
2017-07-01T16:31:59.368Z,1002.1
2017-07-01T16:33:00.744Z,1002.2
2017-07-01T16:34:22.318Z,1002.1
2017-07-01T16:35:23.696Z,1002.1
2017-07-01T16:36:45.296Z,1002.1
2017-07-01T16:37:46.678Z,1002.1
2017-07-01T16:39:08.224Z,1002.1
2017-07-01T16:40:09.600Z,1002.1
2017-07-01T16:41:31.175Z,1002.1
2017-07-01T16:42:32.554Z,1002.1
2017-07-01T21:36:18.063Z,1005.4
2017-07-01T21:37:19.437Z,1005.4
2017-07-01T21:38:40.901Z,1005.5
2017-07-01T21:39:42.274Z,1005.4
2017-07-01T21:41:03.746Z,1005.5
2017-07-01T21:42:05.214Z,1005.6
2017-07-01T21:43:26.707Z,1005.5
2017-07-01T21:44:28.082Z,1005.5
2017-07-01T21:45:49.554Z,1005.5
2017-07-01T21:46:50.927Z,1005.5
2017-07-01T21:48:12.396Z,1005.6
2017-07-01T21:49:13.772Z,1005.6
2017-07-01T21:50:35.248Z,1005.6
2017-07-01T21:51:36.622Z,1005.6
2017-07-01T21:52:58.181Z,1005.6
2017-07-01T21:53:59.550Z,1005.6
2017-07-01T21:55:21.121Z,1005.6
2017-07-01T21:56:22.498Z,1005.6
2017-07-01T21:57:44.086Z,1005.6
2017-07-01T21:58:45.457Z,1005.7
2017-07-01T22:00:06.925Z,1005.7
2017-07-01T22:01:08.297Z,1005.7
2017-07-01T22:02:29.766Z,1005.7
2017-07-01T22:03:31.141Z,1005.7
2017-07-01T22:04:52.633Z,1005.7
2017-07-01T22:05:54.008Z,1005.8
2017-07-01T22:07:15.572Z,1005.7
2017-07-01T22:08:16.948Z,1005.8
2017-07-01T22:09:38.423Z,1005.8
2017-07-01T22:10:39.791Z,1005.8
2017-07-01T22:12:01.282Z,1005.8
2017-07-01T22:13:02.656Z,1005.8
2017-07-01T22:14:24.224Z,1005.8
2017-07-01T22:15:25.600Z,1005.9
2017-07-01T22:16:51.914Z,1005.9
2017-07-01T22:17:57.843Z,1005.8
2017-07-01T22:19:19.214Z,1005.8
2017-07-01T22:20:20.545Z,1005.8
2017-07-01T22:21:42.090Z,1005.9
2017-07-01T22:22:43.464Z,1005.9
2017-07-01T22:24:05.037Z,1005.9
2017-07-01T22:25:06.412Z,1006.0
2017-07-01T22:26:27.994Z,1005.9
2017-07-01T22:27:29.368Z,1005.9
2017-07-01T22:28:50.940Z,1005.9
2017-07-01T22:29:52.314Z,1006.0
2017-07-01T22:31:13.887Z,1006.0
2017-07-01T22:32:15.263Z,1005.9
2017-07-01T22:33:36.870Z,1005.9
2017-07-01T22:34:38.244Z,1006.0
2017-07-01T22:35:59.728Z,1006.0
2017-07-01T22:37:01.100Z,1006.0
2017-07-01T22:38:22.678Z,1006.0
2017-07-01T22:39:24.053Z,1006.0
2017-07-01T22:40:45.652Z,1006.0
2017-07-01T22:41:47.024Z,1006.0
2017-07-01T22:43:08.580Z,1006.0
2017-07-01T22:44:09.954Z,1006.1
2017-07-01T22:45:31.537Z,1006.1
2017-07-01T22:46:32.909Z,1006.0
2017-07-01T22:47:54.492Z,1006.0
2017-07-01T22:48:55.866Z,1006.1
2017-07-01T22:50:17.435Z,1006.1
2017-07-01T22:51:18.810Z,1006.1
2017-07-01T22:52:40.385Z,1006.1
2017-07-01T22:53:41.763Z,1006.0
2017-07-01T22:55:03.348Z,1006.1
2017-07-01T22:56:04.719Z,1006.1
2017-07-01T22:57:26.286Z,1006.1
2017-07-01T22:58:27.661Z,1006.1
2017-07-01T22:59:49.236Z,1006.0
2017-07-01T23:00:50.613Z,1006.0
2017-07-01T23:02:12.212Z,1006.0
2017-07-01T23:03:13.580Z,1006.1
2017-07-01T23:04:35.140Z,1006.1
2017-07-01T23:05:36.513Z,1006.1
2017-07-01T23:06:58.093Z,1006.1
2017-07-01T23:07:59.466Z,1006.1
2017-07-01T23:09:21.063Z,1006.1
2017-07-01T23:10:22.438Z,1006.2
2017-07-01T23:11:44.026Z,1006.1
2017-07-01T23:12:45.367Z,1006.1
2017-07-01T23:14:06.941Z,1006.1
2017-07-01T23:15:08.316Z,1006.1
2017-07-01T23:16:29.814Z,1006.1
2017-07-01T23:17:31.189Z,1006.2
2017-07-01T23:18:52.743Z,1006.1
2017-07-01T23:19:54.119Z,1006.1
2017-07-01T23:21:15.691Z,1006.1
2017-07-01T23:22:17.068Z,1006.2
2017-07-01T23:23:38.664Z,1006.1
2017-07-01T23:24:40.042Z,1006.1
2017-07-01T23:26:01.551Z,1006.1
2017-07-01T23:27:02.923Z,1006.1
2017-07-01T23:28:24.496Z,1006.1
2017-07-01T23:29:25.870Z,1006.1
2017-07-01T23:30:47.359Z,1006.1
2017-07-01T23:31:48.736Z,1006.1
2017-07-01T23:33:10.298Z,1006.2
2017-07-01T23:34:11.671Z,1006.1
2017-07-01T23:35:33.248Z,1006.2
2017-07-01T23:36:34.623Z,1006.1
2017-07-01T23:37:56.223Z,1006.1
2017-07-01T23:38:57.596Z,1006.2
2017-07-01T23:40:19.162Z,1006.1
2017-07-01T23:41:20.537Z,1006.1
2017-07-01T23:42:42.108Z,1006.2
2017-07-01T23:43:43.486Z,1006.1
2017-07-01T23:45:05.071Z,1006.1
2017-07-01T23:46:06.444Z,1006.2
2017-07-01T23:47:28.015Z,1006.2
2017-07-01T23:48:29.390Z,1006.1
2017-07-01T23:49:50.973Z,1006.1
2017-07-01T23:50:52.344Z,1006.1
2017-07-01T23:52:13.838Z,1006.1
2017-07-01T23:53:15.211Z,1006.1
2017-07-01T23:54:36.780Z,1006.1
2017-07-01T23:55:38.155Z,1006.1
2017-07-01T23:56:59.623Z,1006.1
2017-07-01T23:58:00.995Z,1006.1
2017-07-01T23:59:22.486Z,1006.1
